createdAt,value
2017-09-29T00:01:59.345Z,26.20
2017-09-29T00:04:26.748Z,25.60
2017-09-29T00:06:54.137Z,23.90
2017-09-29T00:09:21.587Z,27.37
2017-09-29T00:11:48.990Z,27.53
2017-09-29T00:14:16.435Z,25.43
2017-09-29T00:16:43.857Z,25.97
2017-09-29T00:19:11.274Z,26.03
2017-09-29T00:21:38.680Z,28.03
2017-09-29T00:24:06.098Z,27.07
2017-09-29T00:26:33.539Z,25.33
2017-09-29T00:29:00.957Z,27.03
2017-09-29T00:31:28.355Z,25.77
2017-09-29T00:33:55.814Z,23.50
2017-09-29T00:36:23.242Z,22.63
2017-09-29T00:38:50.677Z,23.97
2017-09-29T00:41:18.077Z,25.30
2017-09-29T00:43:45.536Z,24.93
2017-09-29T00:46:12.941Z,23.97
2017-09-29T00:48:40.514Z,26.00
2017-09-29T00:51:07.945Z,25.33
2017-09-29T00:53:35.376Z,22.80
2017-09-29T00:56:02.785Z,23.03
2017-09-29T00:58:30.325Z,23.30
2017-09-29T01:00:57.793Z,23.70
2017-09-29T01:03:25.201Z,30.87
2017-09-29T01:05:52.619Z,23.90
2017-09-29T01:08:20.041Z,23.87
2017-09-29T01:10:47.625Z,23.80
2017-09-29T01:13:15.056Z,23.03
2017-09-29T01:15:42.456Z,23.87
2017-09-29T01:18:09.882Z,23.43
2017-09-29T01:20:37.297Z,24.15
2017-09-29T01:23:04.702Z,24.10
2017-09-29T01:25:32.118Z,24.73
2017-09-29T01:27:59.831Z,24.83
2017-09-29T01:30:27.254Z,25.07
2017-09-29T01:32:54.729Z,24.73
2017-09-29T01:35:22.189Z,24.47
2017-09-29T01:37:49.677Z,25.20
2017-09-29T01:40:17.067Z,23.90
2017-09-29T01:42:44.482Z,25.33
2017-09-29T01:45:11.885Z,28.33
2017-09-29T01:47:39.315Z,26.13
2017-09-29T01:50:06.732Z,27.40
2017-09-29T01:52:34.152Z,25.77
2017-09-29T01:55:01.563Z,27.13
2017-09-29T01:57:29.006Z,26.23
2017-09-29T01:59:56.432Z,27.52
2017-09-29T02:02:23.830Z,27.63
2017-09-29T02:04:51.259Z,30.03
2017-09-29T02:07:18.686Z,27.90
2017-09-29T02:09:46.117Z,30.87
2017-09-29T02:12:13.549Z,27.80
2017-09-29T02:14:41.229Z,30.80
2017-09-29T02:17:08.646Z,28.03
2017-09-29T02:19:36.054Z,28.30
2017-09-29T02:22:03.474Z,30.60
2017-09-29T02:24:30.880Z,28.87
2017-09-29T02:26:58.310Z,27.07
2017-09-29T02:29:25.721Z,28.63
2017-09-29T02:31:53.141Z,29.67
2017-09-29T02:34:20.538Z,27.80
2017-09-29T02:36:47.954Z,28.30
2017-09-29T02:39:15.369Z,29.50
2017-09-29T02:41:42.773Z,29.60
2017-09-29T02:44:10.255Z,30.33
2017-09-29T02:46:37.672Z,29.80
2017-09-29T02:49:05.099Z,34.93
2017-09-29T02:51:32.497Z,29.70
2017-09-29T02:53:59.927Z,28.20
2017-09-29T02:56:30.203Z,28.33
2017-09-29T02:59:01.803Z,31.00
2017-09-29T03:01:30.978Z,31.83
2017-09-29T03:03:59.261Z,29.43
2017-09-29T03:06:26.687Z,28.97
2017-09-29T03:08:54.107Z,26.67
2017-09-29T03:11:21.523Z,29.83
2017-09-29T03:13:48.920Z,28.90
2017-09-29T03:16:16.364Z,31.10
2017-09-29T03:18:43.802Z,41.83
2017-09-29T03:21:11.210Z,45.13
2017-09-29T03:23:38.629Z,37.80
2017-09-29T03:26:06.038Z,36.30
2017-09-29T03:28:33.495Z,35.13
2017-09-29T03:31:00.906Z,35.40
2017-09-29T03:33:28.317Z,33.63
2017-09-29T03:35:55.761Z,34.63
2017-09-29T03:38:23.171Z,31.67
2017-09-29T03:40:50.601Z,32.10
2017-09-29T03:43:18.006Z,31.73
2017-09-29T03:45:45.411Z,30.87
2017-09-29T03:48:12.838Z,33.87
2017-09-29T03:50:41.029Z,31.87
2017-09-29T03:53:10.331Z,29.87
2017-09-29T03:55:38.969Z,33.47
2017-09-29T03:58:08.242Z,32.20
2017-09-29T04:00:35.682Z,31.00
2017-09-29T04:03:03.114Z,31.60
2017-09-29T04:05:30.567Z,28.70
2017-09-29T04:07:57.986Z,30.27
2017-09-29T04:10:25.472Z,30.73
2017-09-29T04:12:53.032Z,29.93
2017-09-29T04:15:20.465Z,33.13
2017-09-29T04:17:47.876Z,31.13
2017-09-29T04:20:15.341Z,30.43
2017-09-29T04:22:42.755Z,30.50
